createdAt,value
2023-01-19T00:00:07.563Z,-7.15
2023-01-19T00:02:53.349Z,-7.03
2023-01-19T00:05:39.435Z,-6.48
2023-01-19T00:08:25.381Z,-6.56
2023-01-19T00:11:11.049Z,-6.78
2023-01-19T00:13:56.880Z,-6.64
2023-01-19T00:16:42.724Z,-6.61
2023-01-19T00:19:28.591Z,-6.87
2023-01-19T00:22:14.416Z,-6.65
2023-01-19T00:25:00.188Z,-7.00
2023-01-19T00:27:46.208Z,-7.21
2023-01-19T00:30:31.899Z,-7.16
2023-01-19T00:33:17.784Z,-6.37
2023-01-19T00:36:03.783Z,-6.60
2023-01-19T00:38:49.597Z,-7.40
2023-01-19T00:41:35.551Z,-8.12
2023-01-19T00:44:21.469Z,-7.21
2023-01-19T00:47:07.269Z,-6.96
2023-01-19T00:49:53.243Z,-6.94
2023-01-19T00:52:39.017Z,-7.38
2023-01-19T00:55:24.910Z,-7.09
2023-01-19T00:58:10.970Z,-7.22
2023-01-19T01:00:56.853Z,-6.17
2023-01-19T01:03:42.901Z,-5.87
2023-01-19T01:06:28.795Z,-6.97
2023-01-19T01:09:14.622Z,-7.02
2023-01-19T01:12:00.496Z,-7.10
2023-01-19T01:14:46.315Z,-6.99
2023-01-19T01:17:32.150Z,-7.00
2023-01-19T01:20:17.987Z,-7.25
2023-01-19T01:23:04.294Z,-7.02
2023-01-19T01:25:50.347Z,-7.26
2023-01-19T01:28:36.105Z,-7.47
2023-01-19T01:31:22.073Z,-7.10
2023-01-19T01:34:07.853Z,-6.90
2023-01-19T01:36:53.780Z,-6.91
2023-01-19T01:39:39.615Z,-6.76
2023-01-19T01:42:25.498Z,-6.73
2023-01-19T01:45:11.173Z,-6.80
2023-01-19T01:47:57.157Z,-7.08
2023-01-19T01:50:43.059Z,-6.98
2023-01-19T01:53:29.089Z,-7.17
2023-01-19T01:56:15.106Z,-7.13
2023-01-19T01:59:01.152Z,-7.69
2023-01-19T02:01:49.129Z,-7.92
2023-01-19T02:04:35.502Z,-7.73
2023-01-19T02:07:21.300Z,-7.52
2023-01-19T02:10:07.188Z,-7.23
2023-01-19T02:12:53.035Z,-7.17
2023-01-19T02:15:38.843Z,-5.93
2023-01-19T02:18:24.891Z,-5.74
2023-01-19T02:21:10.637Z,-6.07
2023-01-19T02:23:56.573Z,-5.44
2023-01-19T02:26:42.542Z,-6.57
2023-01-19T02:29:28.357Z,-6.72
2023-01-19T02:32:14.370Z,-6.69
2023-01-19T02:35:00.305Z,-6.25
2023-01-19T02:37:46.124Z,-6.36
2023-01-19T02:40:32.109Z,-6.71
2023-01-19T02:43:17.856Z,-6.81
2023-01-19T02:46:03.780Z,-7.68
2023-01-19T02:48:49.633Z,-8.20
2023-01-19T02:51:35.456Z,-8.32
2023-01-19T02:54:21.370Z,-8.05
2023-01-19T02:57:07.347Z,-8.36
2023-01-19T02:59:53.164Z,-8.19
2023-01-19T03:02:41.234Z,-7.62
2023-01-19T03:05:27.100Z,-7.60
2023-01-19T03:08:12.931Z,-7.29
2023-01-19T03:10:58.746Z,-7.51
2023-01-19T03:13:44.585Z,-8.02
2023-01-19T03:16:30.430Z,-8.23
2023-01-19T03:19:16.422Z,-7.79
2023-01-19T03:22:02.340Z,-7.22
2023-01-19T03:24:48.383Z,-7.29
2023-01-19T03:27:34.303Z,-7.29
2023-01-19T03:30:20.237Z,-7.16
2023-01-19T03:33:06.117Z,-7.17
2023-01-19T03:35:52.036Z,-7.57
2023-01-19T03:38:37.982Z,-8.03
2023-01-19T03:41:23.723Z,-7.95
2023-01-19T03:44:09.618Z,-7.77
2023-01-19T03:46:55.527Z,-7.79
2023-01-19T03:49:41.531Z,-7.93
2023-01-19T03:52:27.481Z,-7.89
2023-01-19T03:55:13.298Z,-7.54
2023-01-19T03:57:59.152Z,-7.48
2023-01-19T04:00:45.072Z,-7.73
2023-01-19T04:03:30.938Z,-7.79
2023-01-19T04:06:16.857Z,-8.05
2023-01-19T04:09:02.795Z,-7.86
2023-01-19T04:11:48.500Z,-8.21
2023-01-19T04:14:34.340Z,-7.80
2023-01-19T04:17:20.253Z,-7.86
2023-01-19T04:20:06.278Z,-8.25
2023-01-19T04:22:52.218Z,-8.30
2023-01-19T04:25:39.056Z,-8.13
2023-01-19T04:28:25.206Z,-7.51
2023-01-19T04:31:11.228Z,-6.91
2023-01-19T04:33:57.153Z,-6.62
2023-01-19T04:36:43.035Z,-6.80
2023-01-19T04:39:29.033Z,-6.95
2023-01-19T04:42:15.077Z,-6.61
2023-01-19T04:45:01.060Z,-6.55
2023-01-19T04:47:46.971Z,-6.82
2023-01-19T04:50:32.961Z,-6.76
2023-01-19T04:53:18.899Z,-6.89
2023-01-19T04:56:04.729Z,-7.10
2023-01-19T04:58:50.665Z,-6.83
2023-01-19T05:01:36.506Z,-7.17
2023-01-19T05:04:22.792Z,-7.37
2023-01-19T05:07:08.766Z,-7.64
2023-01-19T05:09:54.623Z,-7.67
2023-01-19T05:12:40.465Z,-7.58
2023-01-19T05:15:26.446Z,-6.68
2023-01-19T05:18:12.351Z,-6.07
2023-01-19T05:20:58.296Z,-5.50
2023-01-19T05:23:44.101Z,-4.93
2023-01-19T05:26:29.994Z,-4.59
2023-01-19T05:29:16.404Z,-4.54
2023-01-19T05:32:02.243Z,-4.67
2023-01-19T05:34:48.694Z,-4.46
2023-01-19T05:37:34.742Z,-4.63
2023-01-19T05:40:20.628Z,-4.73
2023-01-19T05:43:06.735Z,-4.45
2023-01-19T05:45:52.627Z,-5.06
2023-01-19T05:48:38.638Z,-4.79
2023-01-19T05:51:24.645Z,-4.72
2023-01-19T05:54:10.442Z,-4.32
2023-01-19T05:56:56.265Z,-3.94
2023-01-19T05:59:42.031Z,-3.27
2023-01-19T06:02:27.886Z,-4.33
2023-01-19T06:05:14.353Z,-4.48
2023-01-19T06:08:00.073Z,-4.00
2023-01-19T06:10:46.028Z,-4.76
2023-01-19T06:13:31.979Z,-4.97
2023-01-19T06:16:17.755Z,-5.03
2023-01-19T06:19:03.770Z,-4.83
2023-01-19T06:21:49.737Z,-4.90
2023-01-19T06:24:35.924Z,-4.80
2023-01-19T06:27:21.779Z,-3.99
2023-01-19T06:30:07.643Z,-3.37
2023-01-19T06:32:53.396Z,-2.99
2023-01-19T06:35:39.373Z,-2.91
2023-01-19T06:38:25.294Z,-2.90
2023-01-19T06:41:11.212Z,-3.05
2023-01-19T06:43:57.061Z,-2.78
2023-01-19T06:46:42.836Z,-3.64
2023-01-19T06:49:28.849Z,-3.36
2023-01-19T06:52:14.705Z,-3.17
2023-01-19T06:55:00.676Z,-3.75
2023-01-19T06:57:46.652Z,-3.51
2023-01-19T07:00:33.011Z,-3.28
2023-01-19T07:03:19.082Z,-4.49
2023-01-19T07:06:07.024Z,-5.05
2023-01-19T07:08:53.271Z,-5.78
2023-01-19T07:11:39.064Z,-6.22
2023-01-19T07:14:24.928Z,-6.33
2023-01-19T07:17:10.807Z,-6.63
2023-01-19T07:19:56.773Z,-6.74
2023-01-19T07:22:44.507Z,-6.41
2023-01-19T07:25:30.486Z,-6.12
2023-01-19T07:28:16.549Z,-5.82
2023-01-19T07:31:02.366Z,-5.47
2023-01-19T07:33:48.281Z,-5.85
2023-01-19T07:36:34.226Z,-5.09
2023-01-19T07:39:20.096Z,-5.22
2023-01-19T07:42:06.038Z,-5.30
2023-01-19T07:44:51.781Z,-5.10
2023-01-19T07:47:37.608Z,-5.07
2023-01-19T07:50:23.388Z,-5.02
2023-01-19T07:53:09.284Z,-5.11
2023-01-19T07:55:55.282Z,-4.41
2023-01-19T07:58:41.187Z,-3.82
2023-01-19T08:01:27.135Z,-4.20
2023-01-19T08:04:13.370Z,-4.72
2023-01-19T08:06:59.323Z,-4.63
2023-01-19T08:09:45.434Z,-5.48
2023-01-19T08:12:31.387Z,-4.54
2023-01-19T08:15:17.251Z,-3.89
2023-01-19T08:18:03.203Z,-3.48
2023-01-19T08:20:49.007Z,-3.06
2023-01-19T08:23:34.903Z,-2.47
2023-01-19T08:26:20.719Z,-4.35
2023-01-19T08:29:06.523Z,-5.31
2023-01-19T08:31:52.737Z,-5.33
2023-01-19T08:34:38.789Z,-5.53
2023-01-19T08:37:24.584Z,-5.50
2023-01-19T08:40:10.649Z,-5.56
2023-01-19T08:42:56.557Z,-5.57
2023-01-19T08:45:42.262Z,-5.65
2023-01-19T08:48:28.160Z,-5.48
2023-01-19T08:51:13.798Z,-5.64
2023-01-19T08:53:59.746Z,-5.67
2023-01-19T08:56:45.747Z,-5.53
2023-01-19T08:59:31.593Z,-5.01
2023-01-19T09:02:17.574Z,-4.16
2023-01-19T09:05:03.342Z,-3.17
2023-01-19T09:07:49.257Z,-2.54
2023-01-19T09:10:35.219Z,-2.17
2023-01-19T09:13:20.950Z,-1.79
2023-01-19T09:16:06.979Z,-1.57
2023-01-19T09:18:52.714Z,-1.53
2023-01-19T09:21:38.621Z,-1.59
2023-01-19T09:24:24.536Z,-0.78
2023-01-19T09:27:10.441Z,-0.91
2023-01-19T09:29:56.284Z,-1.92
2023-01-19T09:32:42.264Z,-2.91
2023-01-19T09:35:28.463Z,-2.60
2023-01-19T09:38:14.397Z,-1.92
2023-01-19T09:41:00.134Z,-1.53
2023-01-19T09:43:46.067Z,-1.44
2023-01-19T09:46:32.244Z,-1.82
2023-01-19T09:49:18.400Z,-0.70
2023-01-19T09:52:04.216Z,-0.36
2023-01-19T09:54:49.982Z,-0.78
2023-01-19T09:57:35.818Z,-0.17
2023-01-19T10:00:21.638Z,0.27
2023-01-19T10:03:07.529Z,-0.26
2023-01-19T10:05:53.638Z,-0.41
2023-01-19T10:08:41.656Z,0.02
2023-01-19T10:11:31.845Z,-0.14
2023-01-19T10:14:20.335Z,0.14
2023-01-19T10:17:06.370Z,0.30
2023-01-19T10:19:52.381Z,0.70
2023-01-19T10:22:38.182Z,1.03
2023-01-19T10:25:24.080Z,1.30
2023-01-19T10:28:10.076Z,1.67
2023-01-19T10:30:55.830Z,1.93
2023-01-19T10:33:41.803Z,1.91
2023-01-19T10:36:27.579Z,1.89
2023-01-19T10:39:13.595Z,1.95
2023-01-19T10:41:59.548Z,2.03
2023-01-19T10:44:45.354Z,2.16
2023-01-19T10:47:31.190Z,2.46
2023-01-19T10:50:17.071Z,2.58
2023-01-19T10:53:03.318Z,2.09
2023-01-19T10:55:50.309Z,1.36
2023-01-19T10:58:38.370Z,0.60
2023-01-19T11:01:24.280Z,-0.30
2023-01-19T11:04:10.371Z,-0.35
2023-01-19T11:06:56.212Z,-0.13
2023-01-19T11:09:43.313Z,-0.15
2023-01-19T11:12:29.385Z,0.48
2023-01-19T11:15:15.187Z,1.05
2023-01-19T11:18:00.914Z,1.32
2023-01-19T11:20:46.871Z,1.29
2023-01-19T11:23:32.781Z,0.06
2023-01-19T11:26:18.729Z,0.75
2023-01-19T11:29:04.749Z,0.55
2023-01-19T11:31:50.751Z,0.63
2023-01-19T11:34:36.830Z,1.20
2023-01-19T11:37:22.692Z,0.62
2023-01-19T11:40:08.587Z,1.14
2023-01-19T11:42:54.499Z,0.53
2023-01-19T11:45:40.372Z,0.72
2023-01-19T11:48:26.236Z,0.91
2023-01-19T11:51:12.114Z,0.94
2023-01-19T11:53:58.349Z,0.89
2023-01-19T11:56:44.463Z,0.67
2023-01-19T11:59:30.343Z,0.52
2023-01-19T12:02:16.420Z,0.38
2023-01-19T12:05:02.367Z,0.55
2023-01-19T12:07:48.325Z,0.95
2023-01-19T12:10:34.182Z,0.99
2023-01-19T12:13:20.099Z,1.33
2023-01-19T12:16:06.293Z,1.16
2023-01-19T12:18:52.345Z,1.88
2023-01-19T12:21:38.258Z,2.32
2023-01-19T12:24:24.209Z,2.37
2023-01-19T12:27:10.069Z,2.49
2023-01-19T12:29:56.041Z,2.75
2023-01-19T12:32:42.029Z,3.24
2023-01-19T12:35:29.989Z,3.39
2023-01-19T12:38:15.969Z,3.48
2023-01-19T12:41:01.952Z,3.47
2023-01-19T12:43:47.724Z,3.51
2023-01-19T12:46:33.635Z,3.21
2023-01-19T12:49:19.638Z,1.99
2023-01-19T12:52:05.526Z,2.64
2023-01-19T12:54:51.407Z,2.34
2023-01-19T12:57:37.280Z,2.65
2023-01-19T13:00:23.351Z,3.19
2023-01-19T13:03:09.652Z,3.46
2023-01-19T13:05:55.442Z,3.74
2023-01-19T13:08:41.432Z,3.82
2023-01-19T13:11:31.336Z,4.14
2023-01-19T13:14:19.419Z,4.12
2023-01-19T13:17:05.134Z,4.31
2023-01-19T13:19:51.051Z,4.26
2023-01-19T13:22:36.801Z,4.23
2023-01-19T13:25:22.733Z,4.38
2023-01-19T13:28:08.747Z,4.36
2023-01-19T13:30:54.700Z,4.71
2023-01-19T13:33:41.295Z,4.76
2023-01-19T13:36:27.457Z,4.87
2023-01-19T13:39:13.276Z,4.90
2023-01-19T13:41:59.244Z,4.55
2023-01-19T13:44:45.125Z,4.36
2023-01-19T13:47:31.080Z,4.30
2023-01-19T13:50:16.931Z,3.76
2023-01-19T13:53:02.757Z,2.93
2023-01-19T13:55:48.864Z,3.48
2023-01-19T13:58:34.797Z,3.25
2023-01-19T14:01:20.899Z,3.41
2023-01-19T14:04:07.070Z,3.76
2023-01-19T14:06:53.522Z,3.70
2023-01-19T14:09:39.674Z,3.12
2023-01-19T14:12:25.927Z,3.28
2023-01-19T14:15:11.875Z,3.53
2023-01-19T14:17:57.805Z,3.87
2023-01-19T14:20:44.071Z,4.14
2023-01-19T14:23:29.904Z,4.20
2023-01-19T14:26:15.925Z,4.07
2023-01-19T14:29:02.001Z,4.07
2023-01-19T14:31:48.049Z,4.26
2023-01-19T14:34:34.115Z,4.13
2023-01-19T14:37:20.039Z,2.00
2023-01-19T14:40:09.181Z,2.13
2023-01-19T14:42:55.131Z,2.48
2023-01-19T14:45:41.057Z,1.13
2023-01-19T14:48:27.500Z,0.06
2023-01-19T14:51:15.505Z,-0.47
2023-01-19T14:54:01.471Z,0.32
2023-01-19T14:56:47.253Z,-0.45
2023-01-19T14:59:33.291Z,-0.23
2023-01-19T15:02:19.306Z,-0.38
2023-01-19T15:05:05.398Z,-0.19
2023-01-19T15:07:51.765Z,-0.46
2023-01-19T15:10:37.582Z,-0.52
2023-01-19T15:13:23.513Z,-1.54
2023-01-19T15:16:09.453Z,-0.77
2023-01-19T15:18:56.302Z,-0.82
2023-01-19T15:21:42.419Z,-0.72
2023-01-19T15:24:28.280Z,-0.60
2023-01-19T15:27:14.235Z,-0.74
2023-01-19T15:30:00.177Z,-0.93
2023-01-19T15:32:46.130Z,-0.37
2023-01-19T15:35:32.127Z,-0.68
2023-01-19T15:38:18.107Z,-0.44
2023-01-19T15:41:04.260Z,0.18
2023-01-19T15:43:52.289Z,0.81
2023-01-19T15:46:38.230Z,0.78
2023-01-19T15:49:24.111Z,0.03
2023-01-19T15:52:10.039Z,-0.22
2023-01-19T15:54:55.859Z,0.07
2023-01-19T15:57:41.758Z,-0.57
2023-01-19T16:00:27.793Z,-1.40
2023-01-19T16:03:13.741Z,-2.16
2023-01-19T16:06:01.685Z,-2.40
2023-01-19T16:08:47.568Z,-2.10
2023-01-19T16:11:33.503Z,-1.64
2023-01-19T16:14:19.473Z,-1.78
2023-01-19T16:17:05.302Z,-1.40
2023-01-19T16:19:51.338Z,-1.99
2023-01-19T16:22:37.241Z,-1.84
2023-01-19T16:25:23.099Z,-1.29
2023-01-19T16:28:08.994Z,-0.80
2023-01-19T16:30:54.812Z,-0.57
2023-01-19T16:33:40.667Z,-1.17
2023-01-19T16:36:26.535Z,-1.55
2023-01-19T16:39:12.371Z,-1.63
2023-01-19T16:41:58.347Z,-1.46
2023-01-19T16:44:44.420Z,-1.82
2023-01-19T16:47:30.247Z,-1.58
2023-01-19T16:50:16.097Z,-1.96
2023-01-19T16:53:02.090Z,-1.83
2023-01-19T16:55:47.936Z,-2.25
2023-01-19T16:58:33.863Z,-2.17
2023-01-19T17:01:20.446Z,-2.77
2023-01-19T17:04:06.684Z,-3.19
2023-01-19T17:06:52.741Z,-3.39
2023-01-19T17:09:38.528Z,-3.61
2023-01-19T17:12:24.545Z,-3.38
2023-01-19T17:15:10.424Z,-3.33
2023-01-19T17:17:56.273Z,-4.26
2023-01-19T17:20:42.089Z,-4.81
2023-01-19T17:23:28.012Z,-4.87
2023-01-19T17:26:13.836Z,-5.02
2023-01-19T17:28:59.844Z,-5.52
2023-01-19T17:31:45.985Z,-5.54
2023-01-19T17:34:32.296Z,-5.29
2023-01-19T17:37:18.255Z,-5.42
2023-01-19T17:40:04.109Z,-5.39
2023-01-19T17:42:49.988Z,-5.10
2023-01-19T17:45:35.713Z,-4.97
2023-01-19T17:48:21.501Z,-4.98
2023-01-19T17:51:07.609Z,-4.91
2023-01-19T17:53:53.433Z,-4.91
2023-01-19T17:56:39.313Z,-5.05
2023-01-19T17:59:25.240Z,-5.69
2023-01-19T18:02:11.385Z,-5.45
2023-01-19T18:04:57.349Z,-5.31
2023-01-19T18:07:43.212Z,-5.64
2023-01-19T18:10:36.965Z,-5.79
2023-01-19T18:13:23.240Z,-5.72
2023-01-19T18:16:09.115Z,-5.69
2023-01-19T18:18:55.088Z,-6.06
2023-01-19T18:21:41.141Z,-5.89
2023-01-19T18:24:26.980Z,-6.30
2023-01-19T18:27:12.894Z,-6.47
2023-01-19T18:29:58.803Z,-6.97
2023-01-19T18:32:44.616Z,-6.70
2023-01-19T18:35:30.632Z,-6.80
2023-01-19T18:38:16.604Z,-6.98
2023-01-19T18:41:02.334Z,-6.90
2023-01-19T18:43:48.192Z,-7.22
2023-01-19T18:46:33.983Z,-7.09
2023-01-19T18:49:19.941Z,-7.05
2023-01-19T18:52:05.780Z,-7.21
2023-01-19T18:54:51.741Z,-7.38
2023-01-19T18:57:37.657Z,-7.53
2023-01-19T19:00:24.178Z,-7.85
2023-01-19T19:03:10.057Z,-7.93
2023-01-19T19:05:55.853Z,-7.26
2023-01-19T19:08:41.752Z,-6.93
2023-01-19T19:11:27.635Z,-7.02
2023-01-19T19:14:13.644Z,-7.26
2023-01-19T19:16:59.415Z,-6.95
2023-01-19T19:19:45.264Z,-7.00
2023-01-19T19:22:31.325Z,-6.77
2023-01-19T19:25:17.252Z,-6.94
2023-01-19T19:28:03.140Z,-7.22
2023-01-19T19:30:49.077Z,-7.15
2023-01-19T19:33:35.144Z,-7.39
2023-01-19T19:36:21.016Z,-7.56
2023-01-19T19:39:06.818Z,-7.50
2023-01-19T19:41:52.801Z,-7.63
2023-01-19T19:44:38.689Z,-7.52
2023-01-19T19:47:24.669Z,-7.47
2023-01-19T19:50:10.766Z,-7.48
2023-01-19T19:52:56.957Z,-7.37
2023-01-19T19:55:42.934Z,-7.18
2023-01-19T19:58:29.102Z,-7.05
2023-01-19T20:01:14.945Z,-6.95
2023-01-19T20:04:01.217Z,-6.73
2023-01-19T20:06:47.113Z,-6.73
2023-01-19T20:09:33.033Z,-6.71
2023-01-19T20:12:19.012Z,-6.76
2023-01-19T20:15:04.831Z,-6.56
2023-01-19T20:17:50.750Z,-6.69
2023-01-19T20:20:36.694Z,-6.63
2023-01-19T20:23:22.613Z,-6.37
2023-01-19T20:26:08.476Z,-6.02
2023-01-19T20:28:54.391Z,-6.01
2023-01-19T20:31:40.491Z,-5.98
2023-01-19T20:34:26.482Z,-6.12
2023-01-19T20:37:12.278Z,-5.84
2023-01-19T20:39:58.230Z,-5.95
2023-01-19T20:42:44.048Z,-6.09
2023-01-19T20:45:29.998Z,-6.21
2023-01-19T20:48:16.154Z,-6.26
2023-01-19T20:51:01.930Z,-6.50
2023-01-19T20:53:47.816Z,-6.57
2023-01-19T20:56:33.729Z,-6.77
2023-01-19T20:59:19.707Z,-6.79
2023-01-19T21:02:05.747Z,-6.96
2023-01-19T21:04:51.766Z,-6.68
2023-01-19T21:07:37.494Z,-6.87
2023-01-19T21:10:24.077Z,-6.79
2023-01-19T21:13:09.917Z,-6.88
2023-01-19T21:15:55.783Z,-6.85
2023-01-19T21:18:41.702Z,-6.87
2023-01-19T21:21:31.799Z,-6.64
2023-01-19T21:24:18.086Z,-6.81
2023-01-19T21:27:04.036Z,-6.87
2023-01-19T21:29:49.807Z,-6.76
2023-01-19T21:32:35.764Z,-6.94
2023-01-19T21:35:21.700Z,-6.75
2023-01-19T21:38:07.606Z,-6.43
2023-01-19T21:40:53.447Z,-6.47
2023-01-19T21:43:39.441Z,-6.48
2023-01-19T21:46:25.214Z,-6.40
2023-01-19T21:49:10.928Z,-6.34
2023-01-19T21:51:56.750Z,-6.41
2023-01-19T21:54:42.713Z,-6.59
2023-01-19T21:57:28.576Z,-6.83
2023-01-19T22:00:14.406Z,-6.79
2023-01-19T22:03:04.241Z,-6.67
2023-01-19T22:05:50.834Z,-6.67
2023-01-19T22:08:36.745Z,-6.68
2023-01-19T22:11:22.733Z,-6.69
2023-01-19T22:14:08.725Z,-6.71
2023-01-19T22:16:54.580Z,-6.73
2023-01-19T22:19:40.562Z,-6.74
2023-01-19T22:22:26.506Z,-6.85
2023-01-19T22:25:12.751Z,-6.91
2023-01-19T22:27:59.028Z,-6.84
2023-01-19T22:30:45.027Z,-6.86
2023-01-19T22:33:31.072Z,-6.73
2023-01-19T22:36:17.059Z,-6.73
2023-01-19T22:39:02.997Z,-6.77
2023-01-19T22:41:48.942Z,-6.73
2023-01-19T22:44:34.848Z,-6.76
2023-01-19T22:47:20.815Z,-6.98
2023-01-19T22:50:06.753Z,-6.94
2023-01-19T22:52:52.587Z,-6.86
2023-01-19T22:55:38.394Z,-6.90
2023-01-19T22:58:24.331Z,-6.79
2023-01-19T23:01:10.266Z,-6.79
2023-01-19T23:03:56.155Z,-6.94
2023-01-19T23:06:42.143Z,-6.78
2023-01-19T23:09:28.036Z,-6.92
2023-01-19T23:12:13.976Z,-6.89
2023-01-19T23:14:59.873Z,-7.05
2023-01-19T23:17:45.893Z,-7.07
2023-01-19T23:20:32.008Z,-7.14
2023-01-19T23:23:17.830Z,-7.19
2023-01-19T23:26:03.902Z,-7.32
2023-01-19T23:28:49.759Z,-7.33
2023-01-19T23:31:35.740Z,-7.52
2023-01-19T23:34:21.741Z,-7.22
2023-01-19T23:37:07.687Z,-7.37
2023-01-19T23:39:53.554Z,-7.05
2023-01-19T23:42:39.540Z,-7.10
2023-01-19T23:45:25.313Z,-7.28
2023-01-19T23:48:11.166Z,-7.32
2023-01-19T23:50:56.984Z,-7.28
2023-01-19T23:53:42.952Z,-7.31
2023-01-19T23:56:28.947Z,-7.38
2023-01-19T23:59:14.800Z,-7.38
